sensor_id;sensor_type;location;lat;lon;timestamp;temperature;humidity
18408;DHT22;9330;52.210;21.174;2023-05-14T00:01:33;8.80;99.90
18408;DHT22;9330;52.210;21.174;2023-05-14T00:04:02;8.80;99.90
18408;DHT22;9330;52.210;21.174;2023-05-14T00:06:29;8.80;99.90
18408;DHT22;9330;52.210;21.174;2023-05-14T00:08:56;8.90;99.90
18408;DHT22;9330;52.210;21.174;2023-05-14T00:11:23;8.80;99.90
18408;DHT22;9330;52.210;21.174;2023-05-14T00:13:50;8.70;99.90
18408;DHT22;9330;52.210;21.174;2023-05-14T00:16:17;8.60;99.90
18408;DHT22;9330;52.210;21.174;2023-05-14T00:18:44;8.70;99.90
18408;DHT22;9330;52.210;21.174;2023-05-14T00:21:12;8.70;99.90
18408;DHT22;9330;52.210;21.174;2023-05-14T00:23:39;8.60;99.90
18408;DHT22;9330;52.210;21.174;2023-05-14T00:26:07;8.50;99.90
18408;DHT22;9330;52.210;21.174;2023-05-14T00:28:33;8.50;99.90
18408;DHT22;9330;52.210;21.174;2023-05-14T00:31:00;8.50;99.90
18408;DHT22;9330;52.210;21.174;2023-05-14T00:33:27;8.50;99.90
18408;DHT22;9330;52.210;21.174;2023-05-14T00:35:54;8.50;99.90
18408;DHT22;9330;52.210;21.174;2023-05-14T00:38:22;8.40;99.90
18408;DHT22;9330;52.210;21.174;2023-05-14T00:40:52;8.40;99.90
18408;DHT22;9330;52.210;21.174;2023-05-14T00:43:19;8.40;99.90
18408;DHT22;9330;52.210;21.174;2023-05-14T00:45:49;8.30;99.90
18408;DHT22;9330;52.210;21.174;2023-05-14T00:48:17;8.20;99.90
18408;DHT22;9330;52.210;21.174;2023-05-14T00:50:44;8.40;99.90
18408;DHT22;9330;52.210;21.174;2023-05-14T00:53:11;8.30;99.90
18408;DHT22;9330;52.210;21.174;2023-05-14T00:55:40;8.20;99.90
18408;DHT22;9330;52.210;21.174;2023-05-14T00:58:09;8.10;99.90
18408;DHT22;9330;52.210;21.174;2023-05-14T01:00:37;8.10;99.90
18408;DHT22;9330;52.210;21.174;2023-05-14T01:03:05;8.10;99.90
18408;DHT22;9330;52.210;21.174;2023-05-14T01:05:38;8.10;99.90
18408;DHT22;9330;52.210;21.174;2023-05-14T01:08:12;8.00;99.90
18408;DHT22;9330;52.210;21.174;2023-05-14T01:10:51;7.90;99.90
18408;DHT22;9330;52.210;21.174;2023-05-14T01:13:26;8.00;99.90
18408;DHT22;9330;52.210;21.174;2023-05-14T01:15:57;7.90;99.90
18408;DHT22;9330;52.210;21.174;2023-05-14T01:18:27;7.90;99.90
18408;DHT22;9330;52.210;21.174;2023-05-14T01:20:55;7.90;99.90
18408;DHT22;9330;52.210;21.174;2023-05-14T01:23:23;7.70;99.90
18408;DHT22;9330;52.210;21.174;2023-05-14T01:25:50;7.70;99.90
18408;DHT22;9330;52.210;21.174;2023-05-14T01:28:18;7.70;99.90
18408;DHT22;9330;52.210;21.174;2023-05-14T01:30:52;7.70;99.90
18408;DHT22;9330;52.210;21.174;2023-05-14T01:33:25;7.80;99.90
18408;DHT22;9330;52.210;21.174;2023-05-14T01:35:53;7.60;99.90
18408;DHT22;9330;52.210;21.174;2023-05-14T01:38:21;7.50;99.90
18408;DHT22;9330;52.210;21.174;2023-05-14T01:40:50;7.60;99.90
18408;DHT22;9330;52.210;21.174;2023-05-14T01:43:19;7.50;99.90
18408;DHT22;9330;52.210;21.174;2023-05-14T01:45:46;7.50;99.90
18408;DHT22;9330;52.210;21.174;2023-05-14T01:48:14;7.40;99.90
18408;DHT22;9330;52.210;21.174;2023-05-14T01:50:41;7.30;99.90
18408;DHT22;9330;52.210;21.174;2023-05-14T01:53:08;7.30;99.90
18408;DHT22;9330;52.210;21.174;2023-05-14T01:55:35;7.30;99.90
18408;DHT22;9330;52.210;21.174;2023-05-14T01:58:03;7.40;99.90
18408;DHT22;9330;52.210;21.174;2023-05-14T02:00:30;7.20;99.90
18408;DHT22;9330;52.210;21.174;2023-05-14T02:02:57;7.20;99.90
18408;DHT22;9330;52.210;21.174;2023-05-14T02:05:24;7.20;99.90
18408;DHT22;9330;52.210;21.174;2023-05-14T02:07:51;7.10;99.90
18408;DHT22;9330;52.210;21.174;2023-05-14T02:10:19;7.10;99.90
18408;DHT22;9330;52.210;21.174;2023-05-14T02:12:46;7.00;99.90
18408;DHT22;9330;52.210;21.174;2023-05-14T02:15:14;7.10;99.90
18408;DHT22;9330;52.210;21.174;2023-05-14T02:17:41;7.00;99.90
18408;DHT22;9330;52.210;21.174;2023-05-14T02:20:09;7.00;99.90
18408;DHT22;9330;52.210;21.174;2023-05-14T02:22:36;7.00;99.90
18408;DHT22;9330;52.210;21.174;2023-05-14T02:25:07;7.00;99.90
18408;DHT22;9330;52.210;21.174;2023-05-14T02:27:35;7.00;99.90
18408;DHT22;9330;52.210;21.174;2023-05-14T02:30:02;6.90;99.90
18408;DHT22;9330;52.210;21.174;2023-05-14T02:32:31;6.90;99.90
18408;DHT22;9330;52.210;21.174;2023-05-14T02:34:58;6.90;99.90
18408;DHT22;9330;52.210;21.174;2023-05-14T02:37:25;6.90;99.90
18408;DHT22;9330;52.210;21.174;2023-05-14T02:39:52;6.90;99.90
18408;DHT22;9330;52.210;21.174;2023-05-14T02:42:19;6.90;99.90
18408;DHT22;9330;52.210;21.174;2023-05-14T02:44:47;6.90;99.90
18408;DHT22;9330;52.210;21.174;2023-05-14T02:47:16;6.80;99.90
18408;DHT22;9330;52.210;21.174;2023-05-14T02:49:45;6.70;99.90
18408;DHT22;9330;52.210;21.174;2023-05-14T02:52:12;6.70;99.90
18408;DHT22;9330;52.210;21.174;2023-05-14T02:54:38;6.80;99.90
18408;DHT22;9330;52.210;21.174;2023-05-14T02:57:05;6.70;99.90
18408;DHT22;9330;52.210;21.174;2023-05-14T02:59:32;6.70;99.90
18408;DHT22;9330;52.210;21.174;2023-05-14T03:01:59;6.60;99.90
18408;DHT22;9330;52.210;21.174;2023-05-14T03:04:27;6.70;99.90
18408;DHT22;9330;52.210;21.174;2023-05-14T03:06:55;6.60;99.90
18408;DHT22;9330;52.210;21.174;2023-05-14T03:09:22;6.70;99.90
18408;DHT22;9330;52.210;21.174;2023-05-14T03:11:49;6.60;99.90
18408;DHT22;9330;52.210;21.174;2023-05-14T03:14:16;6.60;99.90
18408;DHT22;9330;52.210;21.174;2023-05-14T03:16:43;6.70;99.90
18408;DHT22;9330;52.210;21.174;2023-05-14T03:19:10;6.80;99.90
18408;DHT22;9330;52.210;21.174;2023-05-14T03:21:37;6.70;99.90
18408;DHT22;9330;52.210;21.174;2023-05-14T03:24:06;6.60;99.90
18408;DHT22;9330;52.210;21.174;2023-05-14T03:26:33;6.70;99.90
18408;DHT22;9330;52.210;21.174;2023-05-14T03:29:00;6.60;99.90
18408;DHT22;9330;52.210;21.174;2023-05-14T03:31:28;6.90;99.90
18408;DHT22;9330;52.210;21.174;2023-05-14T03:33:56;6.70;99.90
18408;DHT22;9330;52.210;21.174;2023-05-14T03:36:22;6.90;99.90
18408;DHT22;9330;52.210;21.174;2023-05-14T03:38:49;6.70;99.90
18408;DHT22;9330;52.210;21.174;2023-05-14T03:41:18;6.80;99.90
18408;DHT22;9330;52.210;21.174;2023-05-14T03:43:46;6.90;99.90
18408;DHT22;9330;52.210;21.174;2023-05-14T03:46:13;6.80;99.90
18408;DHT22;9330;52.210;21.174;2023-05-14T03:48:40;6.80;99.90
18408;DHT22;9330;52.210;21.174;2023-05-14T03:51:07;6.90;99.90
18408;DHT22;9330;52.210;21.174;2023-05-14T03:53:34;7.00;99.90
18408;DHT22;9330;52.210;21.174;2023-05-14T03:56:01;7.00;99.90
18408;DHT22;9330;52.210;21.174;2023-05-14T03:58:29;7.30;99.90
18408;DHT22;9330;52.210;21.174;2023-05-14T04:00:56;7.20;99.90
18408;DHT22;9330;52.210;21.174;2023-05-14T04:03:23;7.50;99.90
18408;DHT22;9330;52.210;21.174;2023-05-14T04:05:50;7.40;99.90
18408;DHT22;9330;52.210;21.174;2023-05-14T04:08:17;7.50;99.90
18408;DHT22;9330;52.210;21.174;2023-05-14T04:10:44;7.70;99.90
18408;DHT22;9330;52.210;21.174;2023-05-14T04:13:11;7.80;99.90
18408;DHT22;9330;52.210;21.174;2023-05-14T04:15:40;7.80;99.90
18408;DHT22;9330;52.210;21.174;2023-05-14T04:18:07;8.20;99.90
18408;DHT22;9330;52.210;21.174;2023-05-14T04:20:33;8.10;99.90
18408;DHT22;9330;52.210;21.174;2023-05-14T04:23:01;8.20;99.90
18408;DHT22;9330;52.210;21.174;2023-05-14T04:25:28;8.30;99.90
18408;DHT22;9330;52.210;21.174;2023-05-14T04:27:55;8.50;99.90
18408;DHT22;9330;52.210;21.174;2023-05-14T04:30:22;8.60;99.90
18408;DHT22;9330;52.210;21.174;2023-05-14T04:32:50;8.70;99.90
18408;DHT22;9330;52.210;21.174;2023-05-14T04:35:17;8.90;99.90
18408;DHT22;9330;52.210;21.174;2023-05-14T04:37:45;8.90;99.90
18408;DHT22;9330;52.210;21.174;2023-05-14T04:40:12;9.10;99.90
18408;DHT22;9330;52.210;21.174;2023-05-14T04:42:41;9.20;99.90
18408;DHT22;9330;52.210;21.174;2023-05-14T04:45:08;9.40;99.90
18408;DHT22;9330;52.210;21.174;2023-05-14T04:47:36;9.60;99.90
18408;DHT22;9330;52.210;21.174;2023-05-14T04:50:05;9.80;99.90
18408;DHT22;9330;52.210;21.174;2023-05-14T04:52:33;9.90;99.90
18408;DHT22;9330;52.210;21.174;2023-05-14T04:55:00;10.00;99.90
18408;DHT22;9330;52.210;21.174;2023-05-14T04:57:27;10.20;99.90
18408;DHT22;9330;52.210;21.174;2023-05-14T04:59:54;10.40;99.90
18408;DHT22;9330;52.210;21.174;2023-05-14T05:02:21;10.50;99.90
18408;DHT22;9330;52.210;21.174;2023-05-14T05:04:48;10.70;99.90
18408;DHT22;9330;52.210;21.174;2023-05-14T05:07:16;10.80;99.90
18408;DHT22;9330;52.210;21.174;2023-05-14T05:09:43;11.10;99.90
18408;DHT22;9330;52.210;21.174;2023-05-14T05:12:10;11.20;99.90
18408;DHT22;9330;52.210;21.174;2023-05-14T05:14:37;11.40;99.90
18408;DHT22;9330;52.210;21.174;2023-05-14T05:17:04;11.50;99.90
18408;DHT22;9330;52.210;21.174;2023-05-14T05:19:31;11.80;99.90
18408;DHT22;9330;52.210;21.174;2023-05-14T05:21:58;12.00;99.90
18408;DHT22;9330;52.210;21.174;2023-05-14T05:24:27;12.20;99.90
18408;DHT22;9330;52.210;21.174;2023-05-14T05:26:54;12.40;99.90
18408;DHT22;9330;52.210;21.174;2023-05-14T05:29:21;12.60;99.90
18408;DHT22;9330;52.210;21.174;2023-05-14T05:31:48;12.80;99.90
18408;DHT22;9330;52.210;21.174;2023-05-14T05:34:15;13.10;99.90
18408;DHT22;9330;52.210;21.174;2023-05-14T05:36:42;13.40;99.90
18408;DHT22;9330;52.210;21.174;2023-05-14T05:39:09;13.50;99.90
18408;DHT22;9330;52.210;21.174;2023-05-14T05:41:38;13.80;99.90
18408;DHT22;9330;52.210;21.174;2023-05-14T05:44:05;14.00;99.90
18408;DHT22;9330;52.210;21.174;2023-05-14T05:46:32;14.20;99.90
18408;DHT22;9330;52.210;21.174;2023-05-14T05:48:59;14.40;99.90
18408;DHT22;9330;52.210;21.174;2023-05-14T05:51:25;14.60;99.90
18408;DHT22;9330;52.210;21.174;2023-05-14T05:53:52;14.80;99.90
18408;DHT22;9330;52.210;21.174;2023-05-14T05:56:19;15.00;99.90
18408;DHT22;9330;52.210;21.174;2023-05-14T05:58:47;15.20;99.90
18408;DHT22;9330;52.210;21.174;2023-05-14T06:01:14;15.40;99.90
18408;DHT22;9330;52.210;21.174;2023-05-14T06:03:41;15.50;99.90
18408;DHT22;9330;52.210;21.174;2023-05-14T06:06:08;15.70;99.90
18408;DHT22;9330;52.210;21.174;2023-05-14T06:08:35;15.80;99.90
18408;DHT22;9330;52.210;21.174;2023-05-14T06:11:02;16.00;99.90
18408;DHT22;9330;52.210;21.174;2023-05-14T06:13:28;16.20;99.90
18408;DHT22;9330;52.210;21.174;2023-05-14T06:15:57;16.50;99.90
18408;DHT22;9330;52.210;21.174;2023-05-14T06:18:23;16.70;99.90
18408;DHT22;9330;52.210;21.174;2023-05-14T06:20:50;16.90;99.90
18408;DHT22;9330;52.210;21.174;2023-05-14T06:23:17;17.00;99.90
18408;DHT22;9330;52.210;21.174;2023-05-14T06:25:44;17.40;99.90
18408;DHT22;9330;52.210;21.174;2023-05-14T06:28:11;17.60;96.10
18408;DHT22;9330;52.210;21.174;2023-05-14T06:30:38;17.80;97.40
18408;DHT22;9330;52.210;21.174;2023-05-14T06:33:06;18.00;93.00
18408;DHT22;9330;52.210;21.174;2023-05-14T06:35:33;18.20;92.60
18408;DHT22;9330;52.210;21.174;2023-05-14T06:38:00;18.40;95.60
18408;DHT22;9330;52.210;21.174;2023-05-14T06:40:27;18.60;83.10
18408;DHT22;9330;52.210;21.174;2023-05-14T06:42:53;18.70;81.80
18408;DHT22;9330;52.210;21.174;2023-05-14T06:45:20;18.90;73.20
18408;DHT22;9330;52.210;21.174;2023-05-14T06:47:47;19.00;79.50
18408;DHT22;9330;52.210;21.174;2023-05-14T06:50:16;19.20;77.70
18408;DHT22;9330;52.210;21.174;2023-05-14T06:52:43;19.50;73.10
18408;DHT22;9330;52.210;21.174;2023-05-14T06:55:11;19.70;64.20
18408;DHT22;9330;52.210;21.174;2023-05-14T06:57:38;19.80;60.40
18408;DHT22;9330;52.210;21.174;2023-05-14T07:00:06;19.90;56.50
18408;DHT22;9330;52.210;21.174;2023-05-14T07:02:33;19.90;54.70
18408;DHT22;9330;52.210;21.174;2023-05-14T07:05:00;20.00;52.00
18408;DHT22;9330;52.210;21.174;2023-05-14T07:07:28;20.10;54.10
18408;DHT22;9330;52.210;21.174;2023-05-14T07:09:55;20.30;50.80
18408;DHT22;9330;52.210;21.174;2023-05-14T07:12:21;20.30;49.60
18408;DHT22;9330;52.210;21.174;2023-05-14T07:14:48;20.40;49.60
18408;DHT22;9330;52.210;21.174;2023-05-14T07:17:16;20.50;50.00
18408;DHT22;9330;52.210;21.174;2023-05-14T07:19:43;20.70;50.90
18408;DHT22;9330;52.210;21.174;2023-05-14T07:22:11;20.80;48.30
18408;DHT22;9330;52.210;21.174;2023-05-14T07:24:39;20.90;51.30
18408;DHT22;9330;52.210;21.174;2023-05-14T07:27:06;21.00;47.80
18408;DHT22;9330;52.210;21.174;2023-05-14T07:29:33;21.30;51.80
18408;DHT22;9330;52.210;21.174;2023-05-14T07:32:00;21.30;47.50
18408;DHT22;9330;52.210;21.174;2023-05-14T07:34:27;21.50;47.60
18408;DHT22;9330;52.210;21.174;2023-05-14T07:36:54;21.50;42.50
18408;DHT22;9330;52.210;21.174;2023-05-14T07:39:21;21.60;41.20
18408;DHT22;9330;52.210;21.174;2023-05-14T07:41:50;21.60;39.30
18408;DHT22;9330;52.210;21.174;2023-05-14T07:44:19;21.70;40.20
18408;DHT22;9330;52.210;21.174;2023-05-14T07:46:46;21.80;42.10
18408;DHT22;9330;52.210;21.174;2023-05-14T07:49:13;21.90;37.90
18408;DHT22;9330;52.210;21.174;2023-05-14T07:51:39;22.00;37.60
18408;DHT22;9330;52.210;21.174;2023-05-14T07:54:06;22.00;40.00
18408;DHT22;9330;52.210;21.174;2023-05-14T07:56:33;22.10;38.00
18408;DHT22;9330;52.210;21.174;2023-05-14T07:59:01;22.10;37.90
18408;DHT22;9330;52.210;21.174;2023-05-14T08:01:28;22.10;36.80
18408;DHT22;9330;52.210;21.174;2023-05-14T08:03:56;22.10;37.10
18408;DHT22;9330;52.210;21.174;2023-05-14T08:06:23;22.30;40.40
18408;DHT22;9330;52.210;21.174;2023-05-14T08:08:52;22.30;35.60
18408;DHT22;9330;52.210;21.174;2023-05-14T08:11:18;22.40;36.60
18408;DHT22;9330;52.210;21.174;2023-05-14T08:13:46;22.50;37.30
18408;DHT22;9330;52.210;21.174;2023-05-14T08:16:15;22.40;35.00
18408;DHT22;9330;52.210;21.174;2023-05-14T08:18:41;22.30;35.20
18408;DHT22;9330;52.210;21.174;2023-05-14T08:21:08;22.40;37.10
18408;DHT22;9330;52.210;21.174;2023-05-14T08:23:35;22.50;35.50
18408;DHT22;9330;52.210;21.174;2023-05-14T08:26:02;22.50;35.00
18408;DHT22;9330;52.210;21.174;2023-05-14T08:28:29;22.40;34.50
18408;DHT22;9330;52.210;21.174;2023-05-14T08:30:56;22.30;35.20
18408;DHT22;9330;52.210;21.174;2023-05-14T08:33:27;22.30;34.90
18408;DHT22;9330;52.210;21.174;2023-05-14T08:35:54;22.40;34.40
18408;DHT22;9330;52.210;21.174;2023-05-14T08:38:22;22.30;34.30
18408;DHT22;9330;52.210;21.174;2023-05-14T08:40:55;22.30;35.60
18408;DHT22;9330;52.210;21.174;2023-05-14T08:43:26;22.40;34.10
18408;DHT22;9330;52.210;21.174;2023-05-14T08:45:56;22.50;36.10
18408;DHT22;9330;52.210;21.174;2023-05-14T08:48:24;22.60;35.10
18408;DHT22;9330;52.210;21.174;2023-05-14T08:50:54;22.60;34.00
18408;DHT22;9330;52.210;21.174;2023-05-14T08:53:21;22.50;34.10
18408;DHT22;9330;52.210;21.174;2023-05-14T08:55:49;22.60;33.20
18408;DHT22;9330;52.210;21.174;2023-05-14T08:58:16;22.50;33.30
18408;DHT22;9330;52.210;21.174;2023-05-14T09:00:43;22.50;32.70
18408;DHT22;9330;52.210;21.174;2023-05-14T09:03:11;22.70;36.00
18408;DHT22;9330;52.210;21.174;2023-05-14T09:05:38;22.90;33.20
18408;DHT22;9330;52.210;21.174;2023-05-14T09:08:07;22.70;32.90
18408;DHT22;9330;52.210;21.174;2023-05-14T09:10:34;22.70;32.50
18408;DHT22;9330;52.210;21.174;2023-05-14T09:13:01;22.70;31.50
18408;DHT22;9330;52.210;21.174;2023-05-14T09:15:28;22.80;32.20
18408;DHT22;9330;52.210;21.174;2023-05-14T09:17:55;22.90;33.20
18408;DHT22;9330;52.210;21.174;2023-05-14T09:20:23;23.10;33.00
18408;DHT22;9330;52.210;21.174;2023-05-14T09:22:52;23.00;31.60
18408;DHT22;9330;52.210;21.174;2023-05-14T09:25:25;23.00;31.90
18408;DHT22;9330;52.210;21.174;2023-05-14T09:27:53;22.90;31.00
18408;DHT22;9330;52.210;21.174;2023-05-14T09:30:20;22.90;30.90
18408;DHT22;9330;52.210;21.174;2023-05-14T09:32:47;23.00;31.80
18408;DHT22;9330;52.210;21.174;2023-05-14T09:35:16;23.00;30.40
18408;DHT22;9330;52.210;21.174;2023-05-14T09:37:45;23.20;32.20
18408;DHT22;9330;52.210;21.174;2023-05-14T09:40:13;23.20;29.80
18408;DHT22;9330;52.210;21.174;2023-05-14T09:42:42;23.20;29.80
18408;DHT22;9330;52.210;21.174;2023-05-14T09:45:09;23.20;30.00
18408;DHT22;9330;52.210;21.174;2023-05-14T09:47:37;23.20;30.10
18408;DHT22;9330;52.210;21.174;2023-05-14T09:50:06;23.20;30.40
18408;DHT22;9330;52.210;21.174;2023-05-14T09:52:34;23.20;30.20
18408;DHT22;9330;52.210;21.174;2023-05-14T09:55:01;23.20;28.60
18408;DHT22;9330;52.210;21.174;2023-05-14T09:57:28;23.10;29.50
18408;DHT22;9330;52.210;21.174;2023-05-14T09:59:56;23.20;29.20
18408;DHT22;9330;52.210;21.174;2023-05-14T10:02:25;23.30;28.60
18408;DHT22;9330;52.210;21.174;2023-05-14T10:04:53;23.40;28.80
18408;DHT22;9330;52.210;21.174;2023-05-14T10:07:27;23.40;29.10
18408;DHT22;9330;52.210;21.174;2023-05-14T10:09:58;23.30;28.40
18408;DHT22;9330;52.210;21.174;2023-05-14T10:12:33;23.20;28.20
18408;DHT22;9330;52.210;21.174;2023-05-14T10:15:09;23.30;28.70
18408;DHT22;9330;52.210;21.174;2023-05-14T10:17:39;23.40;28.70
18408;DHT22;9330;52.210;21.174;2023-05-14T10:20:08;23.40;29.60
18408;DHT22;9330;52.210;21.174;2023-05-14T10:22:39;23.60;29.40
18408;DHT22;9330;52.210;21.174;2023-05-14T10:25:07;23.70;30.10
18408;DHT22;9330;52.210;21.174;2023-05-14T10:27:35;23.80;28.90
18408;DHT22;9330;52.210;21.174;2023-05-14T10:30:05;23.80;28.40
18408;DHT22;9330;52.210;21.174;2023-05-14T10:32:36;23.70;29.10
18408;DHT22;9330;52.210;21.174;2023-05-14T10:35:15;23.60;28.30
18408;DHT22;9330;52.210;21.174;2023-05-14T10:37:43;23.60;27.80
18408;DHT22;9330;52.210;21.174;2023-05-14T10:40:11;23.40;28.60
18408;DHT22;9330;52.210;21.174;2023-05-14T10:42:39;23.60;29.00
18408;DHT22;9330;52.210;21.174;2023-05-14T10:45:10;23.50;28.90
18408;DHT22;9330;52.210;21.174;2023-05-14T10:47:40;23.60;29.00
18408;DHT22;9330;52.210;21.174;2023-05-14T10:50:10;23.60;29.60
18408;DHT22;9330;52.210;21.174;2023-05-14T10:52:37;23.50;28.20
18408;DHT22;9330;52.210;21.174;2023-05-14T10:55:05;23.50;28.30
18408;DHT22;9330;52.210;21.174;2023-05-14T10:57:35;23.50;28.40
18408;DHT22;9330;52.210;21.174;2023-05-14T11:00:03;23.50;29.40
18408;DHT22;9330;52.210;21.174;2023-05-14T11:02:35;23.40;28.90
18408;DHT22;9330;52.210;21.174;2023-05-14T11:05:04;23.20;29.40
18408;DHT22;9330;52.210;21.174;2023-05-14T11:07:33;23.00;29.00
18408;DHT22;9330;52.210;21.174;2023-05-14T11:10:02;22.80;29.10
18408;DHT22;9330;52.210;21.174;2023-05-14T11:12:30;22.80;29.60
18408;DHT22;9330;52.210;21.174;2023-05-14T11:14:58;22.80;29.80
18408;DHT22;9330;52.210;21.174;2023-05-14T11:17:25;22.90;30.20
18408;DHT22;9330;52.210;21.174;2023-05-14T11:19:54;23.00;29.50
18408;DHT22;9330;52.210;21.174;2023-05-14T11:22:22;23.20;29.10
18408;DHT22;9330;52.210;21.174;2023-05-14T11:24:49;23.50;30.10
18408;DHT22;9330;52.210;21.174;2023-05-14T11:27:17;23.80;29.90
18408;DHT22;9330;52.210;21.174;2023-05-14T11:29:45;24.10;28.60
18408;DHT22;9330;52.210;21.174;2023-05-14T11:32:12;24.30;28.40
18408;DHT22;9330;52.210;21.174;2023-05-14T11:34:40;24.40;27.90
18408;DHT22;9330;52.210;21.174;2023-05-14T11:37:09;24.50;28.20
18408;DHT22;9330;52.210;21.174;2023-05-14T11:39:37;24.60;27.60
18408;DHT22;9330;52.210;21.174;2023-05-14T11:42:08;24.50;27.60
18408;DHT22;9330;52.210;21.174;2023-05-14T11:44:37;24.80;27.40
18408;DHT22;9330;52.210;21.174;2023-05-14T11:47:05;24.80;27.80
18408;DHT22;9330;52.210;21.174;2023-05-14T11:49:32;24.90;27.80
18408;DHT22;9330;52.210;21.174;2023-05-14T11:52:03;25.10;28.10
18408;DHT22;9330;52.210;21.174;2023-05-14T11:54:32;25.20;27.10
18408;DHT22;9330;52.210;21.174;2023-05-14T11:57:01;25.10;27.50
18408;DHT22;9330;52.210;21.174;2023-05-14T11:59:30;25.20;27.40
18408;DHT22;9330;52.210;21.174;2023-05-14T12:01:57;24.90;26.50
18408;DHT22;9330;52.210;21.174;2023-05-14T12:04:24;24.90;27.00
18408;DHT22;9330;52.210;21.174;2023-05-14T12:06:52;25.00;26.70
18408;DHT22;9330;52.210;21.174;2023-05-14T12:09:20;25.10;26.80
18408;DHT22;9330;52.210;21.174;2023-05-14T12:11:49;25.40;27.10
18408;DHT22;9330;52.210;21.174;2023-05-14T12:14:18;25.60;26.90
18408;DHT22;9330;52.210;21.174;2023-05-14T12:16:45;25.60;26.80
18408;DHT22;9330;52.210;21.174;2023-05-14T12:19:14;25.70;27.20
18408;DHT22;9330;52.210;21.174;2023-05-14T12:21:43;25.80;26.80
18408;DHT22;9330;52.210;21.174;2023-05-14T12:24:12;25.90;26.80
18408;DHT22;9330;52.210;21.174;2023-05-14T12:26:39;25.80;25.80
18408;DHT22;9330;52.210;21.174;2023-05-14T12:29:12;25.50;26.10
18408;DHT22;9330;52.210;21.174;2023-05-14T12:31:45;25.40;27.20
18408;DHT22;9330;52.210;21.174;2023-05-14T12:34:13;25.30;26.50
18408;DHT22;9330;52.210;21.174;2023-05-14T12:36:40;25.20;26.70
18408;DHT22;9330;52.210;21.174;2023-05-14T12:39:07;25.30;26.80
18408;DHT22;9330;52.210;21.174;2023-05-14T12:41:35;25.40;27.00
18408;DHT22;9330;52.210;21.174;2023-05-14T12:44:03;25.40;25.90
18408;DHT22;9330;52.210;21.174;2023-05-14T12:46:32;25.50;26.50
18408;DHT22;9330;52.210;21.174;2023-05-14T12:48:59;25.50;26.30
18408;DHT22;9330;52.210;21.174;2023-05-14T12:51:26;25.70;26.80
18408;DHT22;9330;52.210;21.174;2023-05-14T12:53:53;25.80;26.00
18408;DHT22;9330;52.210;21.174;2023-05-14T12:56:20;25.70;25.40
18408;DHT22;9330;52.210;21.174;2023-05-14T12:58:52;25.40;25.00
18408;DHT22;9330;52.210;21.174;2023-05-14T13:01:19;25.10;25.40
18408;DHT22;9330;52.210;21.174;2023-05-14T13:03:48;25.00;25.90
18408;DHT22;9330;52.210;21.174;2023-05-14T13:06:14;25.00;26.10
18408;DHT22;9330;52.210;21.174;2023-05-14T13:08:42;25.10;25.40
18408;DHT22;9330;52.210;21.174;2023-05-14T13:11:09;25.00;25.20
18408;DHT22;9330;52.210;21.174;2023-05-14T13:13:35;24.50;25.40
18408;DHT22;9330;52.210;21.174;2023-05-14T13:16:03;24.00;25.90
18408;DHT22;9330;52.210;21.174;2023-05-14T13:18:30;23.70;25.90
18408;DHT22;9330;52.210;21.174;2023-05-14T13:20:58;23.60;26.50
18408;DHT22;9330;52.210;21.174;2023-05-14T13:23:25;23.60;26.90
18408;DHT22;9330;52.210;21.174;2023-05-14T13:25:51;23.70;26.00
18408;DHT22;9330;52.210;21.174;2023-05-14T13:28:18;23.60;26.30
18408;DHT22;9330;52.210;21.174;2023-05-14T13:31:02;23.60;26.50
18408;DHT22;9330;52.210;21.174;2023-05-14T13:33:29;23.50;26.10
18408;DHT22;9330;52.210;21.174;2023-05-14T13:35:57;23.50;26.80
18408;DHT22;9330;52.210;21.174;2023-05-14T13:38:24;23.40;26.60
18408;DHT22;9330;52.210;21.174;2023-05-14T13:40:51;23.30;26.90
18408;DHT22;9330;52.210;21.174;2023-05-14T13:43:19;23.40;26.80
18408;DHT22;9330;52.210;21.174;2023-05-14T13:45:46;23.40;27.40
18408;DHT22;9330;52.210;21.174;2023-05-14T13:48:13;23.30;26.90
18408;DHT22;9330;52.210;21.174;2023-05-14T13:50:40;23.30;26.90
18408;DHT22;9330;52.210;21.174;2023-05-14T13:53:09;23.20;26.50
18408;DHT22;9330;52.210;21.174;2023-05-14T13:55:36;23.10;26.90
18408;DHT22;9330;52.210;21.174;2023-05-14T13:58:03;23.00;26.70
18408;DHT22;9330;52.210;21.174;2023-05-14T14:00:30;23.10;26.90
18408;DHT22;9330;52.210;21.174;2023-05-14T14:02:57;23.20;26.10
18408;DHT22;9330;52.210;21.174;2023-05-14T14:05:24;23.30;26.20
18408;DHT22;9330;52.210;21.174;2023-05-14T14:07:52;23.40;26.20
18408;DHT22;9330;52.210;21.174;2023-05-14T14:10:21;23.60;26.20
18408;DHT22;9330;52.210;21.174;2023-05-14T14:12:48;23.60;26.60
18408;DHT22;9330;52.210;21.174;2023-05-14T14:15:15;23.60;26.50
18408;DHT22;9330;52.210;21.174;2023-05-14T14:17:42;23.70;27.10
18408;DHT22;9330;52.210;21.174;2023-05-14T14:20:09;23.70;27.30
18408;DHT22;9330;52.210;21.174;2023-05-14T14:22:37;23.70;27.30
18408;DHT22;9330;52.210;21.174;2023-05-14T14:25:04;23.70;26.50
18408;DHT22;9330;52.210;21.174;2023-05-14T14:27:34;23.60;27.00
18408;DHT22;9330;52.210;21.174;2023-05-14T14:30:04;23.50;26.30
18408;DHT22;9330;52.210;21.174;2023-05-14T14:32:31;23.50;26.70
18408;DHT22;9330;52.210;21.174;2023-05-14T14:34:58;23.50;27.20
18408;DHT22;9330;52.210;21.174;2023-05-14T14:37:25;23.40;26.60
18408;DHT22;9330;52.210;21.174;2023-05-14T14:39:52;23.40;27.30
18408;DHT22;9330;52.210;21.174;2023-05-14T14:42:19;23.40;27.80
18408;DHT22;9330;52.210;21.174;2023-05-14T14:44:47;23.40;28.70
18408;DHT22;9330;52.210;21.174;2023-05-14T14:47:14;23.50;27.50
18408;DHT22;9330;52.210;21.174;2023-05-14T14:49:41;23.40;27.40
18408;DHT22;9330;52.210;21.174;2023-05-14T14:52:08;23.30;27.40
18408;DHT22;9330;52.210;21.174;2023-05-14T14:54:35;23.20;27.20
18408;DHT22;9330;52.210;21.174;2023-05-14T14:57:02;23.20;27.40
18408;DHT22;9330;52.210;21.174;2023-05-14T14:59:28;23.10;27.80
18408;DHT22;9330;52.210;21.174;2023-05-14T15:01:57;23.00;26.90
18408;DHT22;9330;52.210;21.174;2023-05-14T15:04:23;23.00;27.70
18408;DHT22;9330;52.210;21.174;2023-05-14T15:06:50;23.00;27.50
18408;DHT22;9330;52.210;21.174;2023-05-14T15:09:17;23.00;27.30
18408;DHT22;9330;52.210;21.174;2023-05-14T15:11:44;23.00;27.60
18408;DHT22;9330;52.210;21.174;2023-05-14T15:14:11;22.90;26.90
18408;DHT22;9330;52.210;21.174;2023-05-14T15:16:38;22.90;27.30
18408;DHT22;9330;52.210;21.174;2023-05-14T15:19:06;22.80;26.80
18408;DHT22;9330;52.210;21.174;2023-05-14T15:21:33;22.70;26.60
18408;DHT22;9330;52.210;21.174;2023-05-14T15:24:02;22.70;26.50
18408;DHT22;9330;52.210;21.174;2023-05-14T15:26:29;22.60;26.50
18408;DHT22;9330;52.210;21.174;2023-05-14T15:28:58;22.60;26.40
18408;DHT22;9330;52.210;21.174;2023-05-14T15:31:24;22.50;26.60
18408;DHT22;9330;52.210;21.174;2023-05-14T15:33:52;22.50;26.80
18408;DHT22;9330;52.210;21.174;2023-05-14T15:36:21;22.50;27.10
18408;DHT22;9330;52.210;21.174;2023-05-14T15:38:48;22.50;27.20